createdAt,value
2022-09-03T00:02:15.049Z,27.10
2022-09-03T00:04:52.729Z,27.00
2022-09-03T00:07:32.485Z,27.00
2022-09-03T00:10:10.059Z,27.00
2022-09-03T00:12:44.110Z,27.00
2022-09-03T00:15:19.241Z,27.00
2022-09-03T00:17:55.177Z,27.00
2022-09-03T00:20:39.012Z,27.00
2022-09-03T00:23:14.400Z,27.10
2022-09-03T00:25:52.704Z,27.10
2022-09-03T00:28:27.639Z,27.10
2022-09-03T00:31:13.301Z,27.20
2022-09-03T00:33:45.475Z,27.20
2022-09-03T00:36:22.765Z,27.20
2022-09-03T00:38:52.519Z,27.20
2022-09-03T00:41:32.816Z,27.20
2022-09-03T00:44:31.046Z,27.20
2022-09-03T00:47:14.141Z,27.30
2022-09-03T00:49:48.700Z,27.30
2022-09-03T00:52:27.331Z,27.30
2022-09-03T00:55:18.075Z,27.30
2022-09-03T00:58:08.270Z,27.30
2022-09-03T01:00:45.047Z,27.30
2022-09-03T01:03:28.544Z,27.30
2022-09-03T01:06:01.820Z,27.40
2022-09-03T01:08:40.482Z,27.40
2022-09-03T01:11:21.424Z,27.40
2022-09-03T01:14:07.937Z,27.40
2022-09-03T01:16:56.913Z,27.50
2022-09-03T01:20:01.398Z,27.50
2022-09-03T01:22:37.072Z,27.50
2022-09-03T01:25:33.536Z,27.60
2022-09-03T01:28:17.432Z,27.60
2022-09-03T01:30:52.849Z,27.60
2022-09-03T01:33:43.315Z,27.70
2022-09-03T01:36:28.833Z,27.70
2022-09-03T01:39:03.308Z,27.70
2022-09-03T01:42:06.403Z,27.70
2022-09-03T01:44:42.170Z,27.80
2022-09-03T01:47:34.431Z,27.80
2022-09-03T01:50:18.923Z,27.90
2022-09-03T01:53:14.545Z,27.90
2022-09-03T01:56:01.915Z,28.00
2022-09-03T01:58:56.445Z,28.00
2022-09-03T02:01:34.623Z,28.00
2022-09-03T02:04:04.496Z,28.00
2022-09-03T02:06:34.029Z,28.00
2022-09-03T02:09:03.700Z,28.00
2022-09-03T02:11:33.494Z,28.00
2022-09-03T02:14:03.033Z,28.00
2022-09-03T02:16:36.605Z,28.00
2022-09-03T02:19:12.285Z,28.10
2022-09-03T02:21:54.298Z,28.10
2022-09-03T02:24:23.834Z,28.10
2022-09-03T02:26:54.417Z,28.10
2022-09-03T02:29:23.930Z,28.10
2022-09-03T02:31:53.678Z,28.10
2022-09-03T02:34:23.010Z,28.10
2022-09-03T02:36:52.222Z,28.10
2022-09-03T02:39:21.520Z,28.10
2022-09-03T02:41:57.952Z,28.10
2022-09-03T02:44:33.233Z,28.10
2022-09-03T02:47:07.780Z,28.10
2022-09-03T02:49:37.062Z,28.20
2022-09-03T02:52:13.260Z,28.20
2022-09-03T02:54:42.888Z,28.20
2022-09-03T02:57:14.870Z,28.20
2022-09-03T02:59:46.815Z,28.20
2022-09-03T03:02:16.806Z,28.20
2022-09-03T03:04:46.073Z,28.20
2022-09-03T03:07:15.280Z,28.10
2022-09-03T03:09:44.448Z,28.00
2022-09-03T03:12:13.646Z,27.90
2022-09-03T03:14:42.825Z,27.80
2022-09-03T03:17:12.313Z,27.70
2022-09-03T03:19:41.513Z,27.60
2022-09-03T03:22:10.669Z,27.40
2022-09-03T03:24:39.874Z,27.30
2022-09-03T03:27:12.119Z,27.30
2022-09-03T03:29:41.729Z,27.30
2022-09-03T03:32:11.755Z,27.20
2022-09-03T03:34:41.330Z,27.20
2022-09-03T03:37:10.560Z,27.20
2022-09-03T03:39:39.857Z,27.10
2022-09-03T03:42:09.106Z,27.20
2022-09-03T03:44:38.274Z,27.20
2022-09-03T03:47:07.828Z,27.20
2022-09-03T03:49:37.033Z,27.30
2022-09-03T03:52:06.229Z,27.30
2022-09-03T03:54:35.450Z,27.30
2022-09-03T03:57:04.676Z,27.40
2022-09-03T03:59:33.830Z,27.50
2022-09-03T04:02:03.007Z,27.50
2022-09-03T04:04:32.287Z,27.60
2022-09-03T04:07:01.533Z,27.60
2022-09-03T04:09:30.812Z,27.70
2022-09-03T04:12:00.071Z,27.70
2022-09-03T04:14:29.328Z,27.80
2022-09-03T04:16:58.534Z,27.90
2022-09-03T04:19:27.876Z,28.00
2022-09-03T04:21:57.115Z,28.00
2022-09-03T04:24:26.341Z,28.10
2022-09-03T04:26:56.065Z,28.10
2022-09-03T04:29:26.409Z,28.10
2022-09-03T04:32:15.226Z,28.10
2022-09-03T04:34:44.456Z,28.10
2022-09-03T04:37:14.103Z,28.20
2022-09-03T04:39:43.346Z,28.20
2022-09-03T04:42:12.538Z,28.20
2022-09-03T04:44:42.580Z,28.20
2022-09-03T04:47:11.748Z,28.20
2022-09-03T04:49:41.599Z,28.30
2022-09-03T04:52:11.775Z,28.40
2022-09-03T04:54:40.929Z,28.40
2022-09-03T04:57:10.122Z,28.40
2022-09-03T04:59:39.395Z,28.50
2022-09-03T05:02:09.772Z,28.50
2022-09-03T05:04:39.419Z,28.60
2022-09-03T05:07:09.034Z,28.70
2022-09-03T05:09:38.183Z,28.70
2022-09-03T05:12:07.588Z,28.70
2022-09-03T05:14:36.926Z,28.80
2022-09-03T05:17:06.093Z,28.90
2022-09-03T05:19:35.845Z,28.90
2022-09-03T05:22:05.007Z,29.00
2022-09-03T05:24:34.163Z,29.10
2022-09-03T05:27:03.695Z,29.20
2022-09-03T05:29:32.912Z,29.30
2022-09-03T05:32:02.408Z,29.30
2022-09-03T05:34:32.871Z,29.40
2022-09-03T05:37:02.040Z,29.50
2022-09-03T05:39:31.316Z,29.60
2022-09-03T05:42:00.501Z,29.60
2022-09-03T05:44:30.163Z,29.70
2022-09-03T05:46:59.482Z,29.70
2022-09-03T05:49:28.768Z,29.70
2022-09-03T05:51:57.916Z,29.70
2022-09-03T05:54:27.775Z,29.80
2022-09-03T05:56:56.964Z,29.80
2022-09-03T05:59:26.198Z,29.80
2022-09-03T06:01:59.355Z,29.80
2022-09-03T06:04:29.444Z,29.90
2022-09-03T06:06:58.646Z,29.90
2022-09-03T06:09:28.233Z,30.00
2022-09-03T06:11:57.526Z,30.00
2022-09-03T06:14:28.610Z,30.10
2022-09-03T06:16:58.422Z,30.10
2022-09-03T06:19:27.674Z,30.10
2022-09-03T06:21:56.853Z,30.20
2022-09-03T06:24:28.627Z,30.30
2022-09-03T06:26:59.176Z,30.30
2022-09-03T06:29:29.099Z,30.30
2022-09-03T06:31:58.577Z,30.30
2022-09-03T06:34:28.170Z,30.40
2022-09-03T06:36:57.383Z,30.40
2022-09-03T06:39:28.364Z,30.40
2022-09-03T06:41:57.755Z,30.50
2022-09-03T06:44:26.905Z,30.50
2022-09-03T06:46:56.118Z,30.60
2022-09-03T06:49:27.592Z,30.60
2022-09-03T06:51:56.777Z,30.60
2022-09-03T06:54:26.643Z,30.60
2022-09-03T06:56:55.794Z,30.70
2022-09-03T06:59:25.067Z,30.70
2022-09-03T07:01:55.141Z,30.70
2022-09-03T07:04:26.354Z,30.80
2022-09-03T07:06:55.570Z,30.80
2022-09-03T07:09:24.705Z,30.90
2022-09-03T07:11:53.944Z,30.90
2022-09-03T07:14:24.082Z,30.90
2022-09-03T07:16:53.277Z,30.90
2022-09-03T07:19:22.553Z,30.90
2022-09-03T07:21:51.801Z,30.90
2022-09-03T07:24:23.606Z,30.90
2022-09-03T07:26:53.237Z,30.90
2022-09-03T07:29:22.653Z,30.90
2022-09-03T07:31:53.427Z,30.90
2022-09-03T07:34:26.554Z,31.00
2022-09-03T07:36:56.358Z,30.90
2022-09-03T07:39:25.798Z,30.90
2022-09-03T07:41:55.177Z,30.80
2022-09-03T07:44:25.843Z,30.80
2022-09-03T07:46:55.022Z,30.70
2022-09-03T07:49:24.481Z,30.70
2022-09-03T07:51:55.541Z,30.70
2022-09-03T07:54:27.460Z,30.70
2022-09-03T07:56:56.890Z,30.70
2022-09-03T07:59:27.467Z,30.70
2022-09-03T08:01:56.635Z,30.70
2022-09-03T08:04:25.836Z,30.70
2022-09-03T08:06:57.258Z,30.70
2022-09-03T08:09:26.537Z,30.70
2022-09-03T08:11:56.079Z,30.70
2022-09-03T08:14:25.303Z,30.70
2022-09-03T08:16:54.728Z,30.70
2022-09-03T08:19:24.668Z,30.80
2022-09-03T08:21:53.890Z,30.80
2022-09-03T08:24:26.069Z,30.90
2022-09-03T08:26:55.260Z,30.90
2022-09-03T08:29:24.890Z,30.90
2022-09-03T08:31:54.575Z,30.80
2022-09-03T08:34:25.065Z,30.80
2022-09-03T08:36:55.743Z,30.80
2022-09-03T08:39:25.932Z,30.70
2022-09-03T08:42:20.278Z,30.70
2022-09-03T08:44:51.895Z,30.70
2022-09-03T08:47:27.108Z,30.60
2022-09-03T08:50:03.837Z,30.60
2022-09-03T08:52:50.489Z,30.50
2022-09-03T08:55:45.961Z,30.50
2022-09-03T08:58:17.793Z,30.50
2022-09-03T09:01:07.536Z,30.50
2022-09-03T09:04:07.266Z,30.50
2022-09-03T09:06:57.581Z,30.50
2022-09-03T09:09:51.272Z,30.40
2022-09-03T09:12:45.896Z,30.40
2022-09-03T09:15:27.674Z,30.40
2022-09-03T09:18:25.545Z,30.30
2022-09-03T09:21:04.563Z,30.40
2022-09-03T09:23:42.162Z,30.30
2022-09-03T09:26:14.268Z,30.40
2022-09-03T09:28:48.010Z,30.40
2022-09-03T09:31:20.572Z,30.40
2022-09-03T09:33:52.408Z,30.40
2022-09-03T09:36:22.490Z,30.40
2022-09-03T09:38:51.745Z,30.30
2022-09-03T09:41:29.113Z,30.30
2022-09-03T09:44:04.228Z,30.20
2022-09-03T09:46:40.744Z,30.20
2022-09-03T09:49:37.671Z,30.20
2022-09-03T09:52:14.116Z,30.10
2022-09-03T09:54:47.615Z,30.10
2022-09-03T09:57:19.645Z,30.10
2022-09-03T09:59:49.510Z,30.10
2022-09-03T10:02:28.617Z,30.10
2022-09-03T10:05:13.320Z,30.10
2022-09-03T10:07:42.611Z,30.00
2022-09-03T10:10:23.135Z,30.00
2022-09-03T10:13:14.063Z,30.00
2022-09-03T10:15:57.214Z,30.00
2022-09-03T10:18:41.060Z,30.00
2022-09-03T10:21:26.452Z,30.00
2022-09-03T10:24:20.528Z,29.90
2022-09-03T10:26:49.811Z,29.80
2022-09-03T10:29:24.277Z,29.80
2022-09-03T10:32:03.601Z,29.80
2022-09-03T10:34:42.097Z,29.70
2022-09-03T10:37:23.511Z,29.70
2022-09-03T10:40:32.978Z,29.70
2022-09-03T10:43:33.407Z,29.60
2022-09-03T10:46:12.581Z,29.70
2022-09-03T10:48:54.973Z,29.60
2022-09-03T10:51:35.387Z,29.60
2022-09-03T10:54:43.811Z,29.60
2022-09-03T10:57:28.182Z,29.60
2022-09-03T11:00:05.457Z,29.60
2022-09-03T11:02:55.741Z,29.60
2022-09-03T11:05:40.064Z,29.60
2022-09-03T11:08:11.540Z,29.60
2022-09-03T11:10:48.560Z,29.50
2022-09-03T11:13:23.222Z,29.50
2022-09-03T11:15:58.003Z,29.50
2022-09-03T11:18:35.215Z,29.40
2022-09-03T11:21:12.008Z,29.40
2022-09-03T11:23:47.298Z,29.40
2022-09-03T11:26:20.448Z,29.40
2022-09-03T11:29:10.685Z,29.40
2022-09-03T11:31:49.397Z,29.30
2022-09-03T11:34:32.097Z,29.40
2022-09-03T11:37:14.220Z,29.30
2022-09-03T11:39:43.511Z,29.30
2022-09-03T11:42:30.362Z,29.30
2022-09-03T11:45:21.682Z,29.30
2022-09-03T11:47:52.352Z,29.30
2022-09-03T11:50:26.700Z,29.30
2022-09-03T11:53:17.909Z,29.20
2022-09-03T11:56:00.876Z,29.20
2022-09-03T11:58:36.097Z,29.10
2022-09-03T12:01:14.985Z,29.10
2022-09-03T12:03:59.871Z,29.10
2022-09-03T12:07:08.709Z,29.00
2022-09-03T12:10:03.586Z,29.00
2022-09-03T12:12:43.273Z,29.00
2022-09-03T12:15:40.156Z,29.00
2022-09-03T12:18:21.828Z,29.00
2022-09-03T12:21:04.144Z,28.90
2022-09-03T12:23:35.297Z,28.90
2022-09-03T12:26:09.340Z,29.00
2022-09-03T12:28:41.542Z,28.90
2022-09-03T12:31:26.791Z,28.90
2022-09-03T12:34:00.640Z,29.00
2022-09-03T12:36:43.155Z,28.90
2022-09-03T12:39:15.828Z,28.90
2022-09-03T12:42:05.129Z,28.90
2022-09-03T12:44:36.167Z,28.90
2022-09-03T12:47:40.426Z,28.90
2022-09-03T12:50:06.881Z,28.80
2022-09-03T12:52:43.715Z,28.70
2022-09-03T12:55:44.305Z,28.80
2022-09-03T12:58:17.857Z,28.70
2022-09-03T13:00:58.591Z,28.70
2022-09-03T13:03:33.092Z,28.70
2022-09-03T13:06:09.030Z,28.70
2022-09-03T13:08:47.693Z,28.70
2022-09-03T13:11:21.522Z,28.70
2022-09-03T13:14:11.388Z,28.70
2022-09-03T13:16:49.132Z,28.60
2022-09-03T13:19:53.982Z,28.60
2022-09-03T13:22:39.253Z,28.50
2022-09-03T13:25:32.380Z,28.50
2022-09-03T13:28:22.645Z,28.40
2022-09-03T13:31:11.905Z,28.50
2022-09-03T13:33:48.417Z,28.40
2022-09-03T13:36:23.276Z,28.40
2022-09-03T13:39:07.637Z,28.40
2022-09-03T13:41:40.780Z,28.30
2022-09-03T13:44:17.600Z,28.30
2022-09-03T13:46:59.128Z,28.30
2022-09-03T13:50:11.517Z,28.30
2022-09-03T13:53:04.264Z,28.20
2022-09-03T13:55:44.960Z,28.20
2022-09-03T13:58:32.493Z,28.20
2022-09-03T14:01:02.821Z,28.20
2022-09-03T14:03:40.568Z,28.10
2022-09-03T14:06:29.866Z,28.10
2022-09-03T14:09:24.449Z,28.00
2022-09-03T14:12:29.756Z,28.00
2022-09-03T14:15:10.834Z,28.00
2022-09-03T14:17:50.178Z,28.00
2022-09-03T14:20:21.325Z,27.90
2022-09-03T14:22:51.488Z,27.80
2022-09-03T14:25:23.642Z,27.80
2022-09-03T14:27:53.168Z,27.80
2022-09-03T14:30:48.964Z,27.90
2022-09-03T14:33:34.701Z,27.90
2022-09-03T14:36:09.310Z,27.90
2022-09-03T14:38:43.815Z,27.90
2022-09-03T14:41:18.300Z,28.00
2022-09-03T14:44:18.660Z,28.00
2022-09-03T14:47:11.411Z,28.00
2022-09-03T14:49:53.287Z,27.90
2022-09-03T14:52:27.671Z,27.90
2022-09-03T14:55:31.168Z,27.90
2022-09-03T14:58:22.118Z,28.00
2022-09-03T15:01:16.879Z,27.90
2022-09-03T15:04:09.470Z,27.90
2022-09-03T15:06:44.297Z,27.90
2022-09-03T15:09:15.373Z,27.90
2022-09-03T15:11:55.844Z,27.90
2022-09-03T15:14:31.700Z,27.80
2022-09-03T15:17:09.431Z,27.80
2022-09-03T15:20:00.095Z,27.80
2022-09-03T15:22:30.158Z,27.70
2022-09-03T15:25:19.180Z,27.60
2022-09-03T15:28:08.455Z,27.60
2022-09-03T15:30:55.606Z,27.50
2022-09-03T15:33:32.221Z,27.50
2022-09-03T15:36:23.760Z,27.40
2022-09-03T15:39:01.994Z,27.30
2022-09-03T15:41:43.703Z,27.30
2022-09-03T15:44:19.620Z,27.30
2022-09-03T15:47:02.388Z,27.20
2022-09-03T15:49:56.035Z,27.20
2022-09-03T15:52:54.768Z,27.10
2022-09-03T15:55:32.008Z,27.10
2022-09-03T15:58:13.233Z,27.00
2022-09-03T16:00:53.899Z,27.00
2022-09-03T16:03:36.733Z,27.00
2022-09-03T16:06:18.520Z,26.90
2022-09-03T16:08:54.486Z,26.90
2022-09-03T16:11:44.686Z,26.90
2022-09-03T16:14:43.238Z,26.80
2022-09-03T16:17:34.686Z,26.80
2022-09-03T16:20:07.578Z,26.80
2022-09-03T16:22:50.708Z,26.80
2022-09-03T16:25:29.172Z,26.70
2022-09-03T16:28:14.893Z,26.70
2022-09-03T16:31:23.889Z,26.70
2022-09-03T16:34:22.246Z,26.60
2022-09-03T16:36:57.471Z,26.60
2022-09-03T16:39:53.304Z,26.50
2022-09-03T16:42:28.883Z,26.40
2022-09-03T16:45:06.361Z,26.40
2022-09-03T16:47:46.183Z,26.30
2022-09-03T16:50:43.932Z,26.30
2022-09-03T16:53:33.676Z,26.20
2022-09-03T16:56:23.969Z,26.20
2022-09-03T16:58:59.087Z,26.20
2022-09-03T17:01:41.190Z,26.20
2022-09-03T17:04:25.078Z,26.20
2022-09-03T17:07:09.117Z,26.20
2022-09-03T17:09:49.450Z,26.20
2022-09-03T17:12:40.258Z,26.20
2022-09-03T17:15:14.888Z,26.20
2022-09-03T17:17:46.460Z,26.30
2022-09-03T17:20:19.896Z,26.30
2022-09-03T17:23:10.983Z,26.20
2022-09-03T17:25:49.692Z,26.20
2022-09-03T17:28:25.240Z,26.20
2022-09-03T17:31:23.662Z,26.20
2022-09-03T17:34:08.644Z,26.20
2022-09-03T17:36:51.057Z,26.20
2022-09-03T17:39:48.378Z,26.20
2022-09-03T17:42:30.656Z,26.20
2022-09-03T17:45:18.085Z,26.30
2022-09-03T17:48:09.486Z,26.30
2022-09-03T17:51:07.426Z,26.30
2022-09-03T17:53:41.458Z,26.40
2022-09-03T17:56:31.010Z,26.40
2022-09-03T17:59:34.456Z,26.40
2022-09-03T18:02:17.120Z,26.40
2022-09-03T18:04:50.580Z,26.40
2022-09-03T18:07:31.526Z,26.50
2022-09-03T18:10:06.200Z,26.50
2022-09-03T18:12:42.871Z,26.50
2022-09-03T18:15:56.775Z,26.50
2022-09-03T18:18:30.589Z,26.50
2022-09-03T18:21:27.592Z,26.50
2022-09-03T18:24:33.602Z,26.50
2022-09-03T18:27:30.757Z,26.60
2022-09-03T18:30:24.930Z,26.50
2022-09-03T18:33:14.030Z,26.60
2022-09-03T18:36:05.788Z,26.60
2022-09-03T18:38:58.174Z,26.50
2022-09-03T18:42:03.403Z,26.50
2022-09-03T18:45:22.149Z,26.50
2022-09-03T18:48:20.901Z,26.50
2022-09-03T18:51:19.924Z,26.50
2022-09-03T18:54:57.209Z,26.50
2022-09-03T18:57:53.451Z,26.50
2022-09-03T19:00:42.609Z,26.50
2022-09-03T19:03:33.347Z,26.40
2022-09-03T19:06:26.538Z,26.40
2022-09-03T19:09:22.882Z,26.50
2022-09-03T19:12:45.086Z,26.50
2022-09-03T19:15:50.887Z,26.50
2022-09-03T19:18:49.179Z,26.50
2022-09-03T19:21:59.834Z,26.50
2022-09-03T19:24:51.717Z,26.40
2022-09-03T19:27:59.693Z,26.40
2022-09-03T19:31:07.295Z,26.40
2022-09-03T19:33:59.149Z,26.30
2022-09-03T19:37:21.870Z,26.30
2022-09-03T19:40:30.742Z,26.30
2022-09-03T19:43:31.595Z,26.30
2022-09-03T19:46:54.339Z,26.30
2022-09-03T19:49:52.462Z,26.30
2022-09-03T19:52:55.588Z,26.30
2022-09-03T19:55:48.965Z,26.30
2022-09-03T19:58:44.106Z,26.30
2022-09-03T20:01:34.202Z,26.30
2022-09-03T20:04:42.617Z,26.30
2022-09-03T20:07:32.107Z,26.30
2022-09-03T20:10:27.245Z,26.30
2022-09-03T20:13:09.743Z,26.30
2022-09-03T20:15:47.744Z,26.40
2022-09-03T20:18:56.523Z,26.40
2022-09-03T20:21:32.816Z,26.40
2022-09-03T20:24:02.966Z,26.40
2022-09-03T20:26:56.594Z,26.30
2022-09-03T20:29:45.989Z,26.20
2022-09-03T20:32:55.764Z,26.20
2022-09-03T20:35:38.833Z,26.30
2022-09-03T20:38:39.955Z,26.30
2022-09-03T20:41:32.783Z,26.30
2022-09-03T20:44:22.038Z,26.30
2022-09-03T20:46:58.583Z,26.30
2022-09-03T20:50:05.135Z,26.40
2022-09-03T20:52:49.329Z,26.40
2022-09-03T20:55:27.947Z,26.40
2022-09-03T20:58:04.376Z,26.40
2022-09-03T21:01:02.037Z,26.30
2022-09-03T21:03:54.790Z,26.40
2022-09-03T21:06:40.528Z,26.30
2022-09-03T21:09:52.947Z,26.20
2022-09-03T21:12:24.274Z,26.20
2022-09-03T21:15:02.734Z,26.20
2022-09-03T21:18:01.644Z,26.10
2022-09-03T21:20:52.727Z,26.10
2022-09-03T21:23:30.441Z,26.10
2022-09-03T21:26:23.576Z,26.00
2022-09-03T21:29:21.343Z,26.00
2022-09-03T21:31:54.323Z,26.00
2022-09-03T21:34:32.910Z,26.00
2022-09-03T21:37:05.924Z,26.00
2022-09-03T21:39:44.272Z,26.00
2022-09-03T21:42:26.725Z,26.00
2022-09-03T21:45:08.916Z,26.10
2022-09-03T21:47:45.432Z,26.10
2022-09-03T21:50:20.165Z,26.10
2022-09-03T21:53:02.906Z,26.20
2022-09-03T21:55:53.256Z,26.10
2022-09-03T21:58:42.496Z,26.20
2022-09-03T22:01:23.873Z,26.20
2022-09-03T22:03:53.189Z,26.20
2022-09-03T22:06:34.397Z,26.20
2022-09-03T22:09:15.230Z,26.20
2022-09-03T22:11:59.896Z,26.20
2022-09-03T22:14:35.375Z,26.20
2022-09-03T22:17:18.166Z,26.20
2022-09-03T22:19:47.450Z,26.20
2022-09-03T22:22:42.212Z,26.20
2022-09-03T22:25:16.557Z,26.20
2022-09-03T22:27:51.079Z,26.20
2022-09-03T22:30:23.776Z,26.20
2022-09-03T22:33:05.562Z,26.20
2022-09-03T22:35:54.840Z,26.20
2022-09-03T22:38:51.640Z,26.30
2022-09-03T22:41:44.639Z,26.30
2022-09-03T22:44:22.733Z,26.30
2022-09-03T22:46:57.333Z,26.30
2022-09-03T22:49:28.587Z,26.20
2022-09-03T22:52:03.137Z,26.30
2022-09-03T22:55:02.363Z,26.30
2022-09-03T22:57:37.566Z,26.30
2022-09-03T23:00:11.921Z,26.20
2022-09-03T23:02:44.136Z,26.20
2022-09-03T23:05:26.428Z,26.20
2022-09-03T23:08:18.546Z,26.20
2022-09-03T23:11:09.017Z,26.20
2022-09-03T23:13:47.209Z,26.20
2022-09-03T23:16:33.914Z,26.20
2022-09-03T23:21:55.729Z,26.20
2022-09-03T23:24:30.549Z,26.20
2022-09-03T23:27:04.522Z,26.20
2022-09-03T23:29:42.190Z,26.20
2022-09-03T23:32:11.883Z,26.20
2022-09-03T23:34:42.003Z,26.20
2022-09-03T23:37:36.477Z,26.20
2022-09-03T23:40:24.741Z,26.20
2022-09-03T23:43:01.826Z,26.20
2022-09-03T23:45:41.772Z,26.30
2022-09-03T23:48:32.000Z,26.30
2022-09-03T23:51:10.566Z,26.30
2022-09-03T23:53:49.419Z,26.40
2022-09-03T23:56:48.385Z,26.40
2022-09-03T23:59:21.619Z,26.40
